createdAt,value
2018-10-03T00:00:47.059Z,9.63
2018-10-03T00:03:15.881Z,12.47
2018-10-03T00:05:44.709Z,13.30
2018-10-03T00:08:13.526Z,10.43
2018-10-03T00:10:42.695Z,11.43
2018-10-03T00:13:11.528Z,10.80
2018-10-03T00:15:40.379Z,9.33
2018-10-03T00:18:09.202Z,10.20
2018-10-03T00:20:38.023Z,12.33
2018-10-03T00:23:07.094Z,9.47
2018-10-03T00:25:51.094Z,12.80
2018-10-03T00:28:19.898Z,11.43
2018-10-03T00:30:48.722Z,10.37
2018-10-03T00:33:17.545Z,10.10
2018-10-03T00:35:46.366Z,11.73
2018-10-03T00:38:15.286Z,8.07
2018-10-03T00:40:44.109Z,12.77
2018-10-03T00:43:12.912Z,8.10
2018-10-03T00:45:41.729Z,13.93
2018-10-03T00:48:10.890Z,11.07
2018-10-03T00:50:39.701Z,11.05
2018-10-03T00:53:08.534Z,13.60
2018-10-03T00:55:37.363Z,9.17
2018-10-03T00:58:06.636Z,14.13
2018-10-03T01:00:35.478Z,10.27
2018-10-03T01:03:04.308Z,12.57
2018-10-03T01:05:33.112Z,7.17
2018-10-03T01:08:01.911Z,9.20
2018-10-03T01:10:31.129Z,14.23
2018-10-03T01:12:59.930Z,7.43
2018-10-03T01:15:28.749Z,9.43
2018-10-03T01:17:57.603Z,9.10
2018-10-03T01:20:26.483Z,13.53
2018-10-03T01:22:55.293Z,11.90
2018-10-03T01:25:24.130Z,10.43
2018-10-03T01:27:52.941Z,7.13
2018-10-03T01:30:21.747Z,6.83
2018-10-03T01:32:50.838Z,9.60
2018-10-03T01:35:19.639Z,10.20
2018-10-03T01:37:48.465Z,10.07
2018-10-03T01:40:17.301Z,11.63
2018-10-03T01:42:46.126Z,8.27
2018-10-03T01:45:14.950Z,10.97
2018-10-03T01:47:43.806Z,9.80
2018-10-03T01:50:12.619Z,8.17
2018-10-03T01:52:41.439Z,7.13
2018-10-03T01:55:10.995Z,6.23
2018-10-03T01:57:39.763Z,12.87
2018-10-03T02:00:09.583Z,10.30
2018-10-03T02:02:38.405Z,7.97
2018-10-03T02:05:07.490Z,11.18
2018-10-03T02:07:36.315Z,8.23
2018-10-03T02:10:05.126Z,8.00
2018-10-03T02:12:33.925Z,8.53
2018-10-03T02:15:02.764Z,12.30
2018-10-03T02:17:32.024Z,8.87
2018-10-03T02:20:00.822Z,5.53
2018-10-03T02:22:29.611Z,9.07
2018-10-03T02:24:58.450Z,10.63
2018-10-03T02:27:27.290Z,9.50
2018-10-03T02:29:56.091Z,4.90
2018-10-03T02:32:24.922Z,7.60
2018-10-03T02:34:53.744Z,9.13
2018-10-03T02:37:22.585Z,8.13
2018-10-03T02:39:51.834Z,12.37
2018-10-03T02:42:20.638Z,11.60
2018-10-03T02:44:49.433Z,13.50
2018-10-03T02:47:18.322Z,8.50
2018-10-03T02:49:47.127Z,8.53
2018-10-03T02:52:15.950Z,12.37
2018-10-03T02:54:44.770Z,6.70
2018-10-03T02:57:13.592Z,6.87
2018-10-03T02:59:42.446Z,13.83
2018-10-03T03:02:12.258Z,11.10
2018-10-03T03:04:41.051Z,9.67
2018-10-03T03:07:09.841Z,12.70
2018-10-03T03:09:38.702Z,12.00
2018-10-03T03:12:07.772Z,11.23
2018-10-03T03:14:36.615Z,12.27
2018-10-03T03:17:05.459Z,7.93
2018-10-03T03:19:34.246Z,12.53
2018-10-03T03:22:03.054Z,9.07
2018-10-03T03:24:32.149Z,7.63
2018-10-03T03:27:00.986Z,11.27
2018-10-03T03:29:29.799Z,15.60
2018-10-03T03:31:58.627Z,11.23
2018-10-03T03:34:27.475Z,12.67
2018-10-03T03:36:56.310Z,8.93
2018-10-03T03:39:25.121Z,9.47
2018-10-03T03:41:53.929Z,11.00
2018-10-03T03:44:22.717Z,10.13
2018-10-03T03:46:51.987Z,9.20
2018-10-03T03:49:29.865Z,11.73
2018-10-03T03:51:58.771Z,10.93
2018-10-03T03:54:27.585Z,14.10
2018-10-03T03:56:56.382Z,8.70
2018-10-03T03:59:31.800Z,7.93
2018-10-03T04:02:00.610Z,11.73
2018-10-03T04:04:29.905Z,11.30
2018-10-03T04:06:59.298Z,10.97
2018-10-03T04:09:28.131Z,11.27
2018-10-03T04:11:56.959Z,10.47
2018-10-03T04:14:25.787Z,11.10
2018-10-03T04:16:54.611Z,9.10
2018-10-03T04:19:23.647Z,14.10
2018-10-03T04:21:52.518Z,7.20
2018-10-03T04:24:21.329Z,11.97
2018-10-03T04:26:50.159Z,9.60
2018-10-03T04:29:19.227Z,12.27
2018-10-03T04:31:48.028Z,9.63
2018-10-03T04:34:16.889Z,8.57
2018-10-03T04:36:45.725Z,8.20
2018-10-03T04:39:14.547Z,9.07
2018-10-03T04:41:43.381Z,8.30
2018-10-03T04:44:12.219Z,11.50
2018-10-03T04:46:41.046Z,9.27
2018-10-03T04:49:09.982Z,9.20
2018-10-03T04:51:39.113Z,9.60
2018-10-03T04:54:07.943Z,8.63
2018-10-03T04:56:36.779Z,9.97
2018-10-03T04:59:05.920Z,11.80
2018-10-03T05:01:34.733Z,9.60
2018-10-03T05:04:03.586Z,11.73
2018-10-03T05:06:33.042Z,9.87
2018-10-03T05:09:01.975Z,9.80
2018-10-03T05:11:30.848Z,12.80
2018-10-03T05:14:00.214Z,10.13
2018-10-03T05:16:29.013Z,8.13
2018-10-03T05:18:57.826Z,6.67
2018-10-03T05:21:26.641Z,13.07
2018-10-03T05:23:55.453Z,11.40
2018-10-03T05:26:24.273Z,10.57
2018-10-03T05:28:53.084Z,8.60
2018-10-03T05:31:22.003Z,9.93
2018-10-03T05:33:50.803Z,11.03
2018-10-03T05:36:20.185Z,8.83
2018-10-03T05:38:49.017Z,10.47
2018-10-03T05:41:17.866Z,8.43
2018-10-03T05:43:46.705Z,9.80
2018-10-03T05:46:15.551Z,11.43
2018-10-03T05:48:44.417Z,8.00
2018-10-03T05:51:13.204Z,12.77
2018-10-03T05:53:42.035Z,9.20
2018-10-03T05:56:10.855Z,9.60
2018-10-03T05:58:40.002Z,10.10
2018-10-03T06:01:08.830Z,12.60
2018-10-03T06:03:37.692Z,16.83
2018-10-03T06:06:07.379Z,11.70
2018-10-03T06:08:36.719Z,8.13
2018-10-03T06:11:05.563Z,10.17
2018-10-03T06:13:34.381Z,9.50
2018-10-03T06:16:03.201Z,7.70
2018-10-03T06:18:32.050Z,10.33
2018-10-03T06:21:01.187Z,8.70
2018-10-03T06:23:30.055Z,11.33
2018-10-03T06:25:58.918Z,10.07
2018-10-03T06:28:27.790Z,7.93
2018-10-03T06:30:56.623Z,9.17
2018-10-03T06:33:26.192Z,6.40
2018-10-03T06:35:55.030Z,13.58
2018-10-03T06:38:23.853Z,11.00
2018-10-03T06:40:52.712Z,9.67
2018-10-03T06:43:21.991Z,10.97
2018-10-03T06:45:50.946Z,11.43
2018-10-03T06:48:19.762Z,9.23
2018-10-03T06:50:48.612Z,10.37
2018-10-03T06:53:20.584Z,11.07
2018-10-03T06:55:49.422Z,8.70
2018-10-03T06:58:18.254Z,9.10
2018-10-03T07:00:47.056Z,9.90
2018-10-03T07:03:16.301Z,9.03
2018-10-03T07:05:45.195Z,9.77
2018-10-03T07:08:13.992Z,8.40
2018-10-03T07:10:43.332Z,10.10
2018-10-03T07:13:12.244Z,7.63
2018-10-03T07:15:41.055Z,9.43
2018-10-03T07:18:09.893Z,7.87
2018-10-03T07:20:38.742Z,13.87
2018-10-03T07:23:07.634Z,9.40
2018-10-03T07:25:36.823Z,10.73
2018-10-03T07:28:05.761Z,8.47
2018-10-03T07:30:34.611Z,12.60
2018-10-03T07:33:03.475Z,10.47
2018-10-03T07:35:32.299Z,8.40
2018-10-03T07:38:01.118Z,12.63
2018-10-03T07:40:29.966Z,9.73
2018-10-03T07:42:58.810Z,9.63
2018-10-03T07:45:27.660Z,14.67
2018-10-03T07:47:56.949Z,7.80
2018-10-03T07:50:25.770Z,7.77
2018-10-03T07:52:54.614Z,9.67
2018-10-03T07:55:23.455Z,8.73
2018-10-03T07:57:52.301Z,5.97
2018-10-03T08:00:28.004Z,7.20
2018-10-03T08:02:57.347Z,9.13
2018-10-03T08:05:26.451Z,13.22
2018-10-03T08:07:55.737Z,8.13
2018-10-03T08:10:24.563Z,9.20
2018-10-03T08:12:53.851Z,7.67
2018-10-03T08:15:22.705Z,7.23
2018-10-03T08:17:51.637Z,8.80
2018-10-03T08:20:20.503Z,7.83
2018-10-03T08:22:49.308Z,8.00
2018-10-03T08:25:18.108Z,6.27
2018-10-03T08:27:47.175Z,8.43
2018-10-03T08:30:16.493Z,8.10
2018-10-03T08:32:45.761Z,7.73
2018-10-03T08:35:14.380Z,4.10
2018-10-03T08:37:49.880Z,7.67
2018-10-03T08:40:18.704Z,7.53
2018-10-03T08:42:53.984Z,5.87
2018-10-03T08:45:22.809Z,9.57
2018-10-03T08:47:51.643Z,6.23
2018-10-03T08:50:20.710Z,6.93
2018-10-03T08:52:49.590Z,7.83
2018-10-03T08:55:18.384Z,8.80
2018-10-03T08:57:47.237Z,4.40
2018-10-03T09:00:16.076Z,6.10
2018-10-03T09:02:44.967Z,7.83
2018-10-03T09:05:14.175Z,6.70
2018-10-03T09:07:42.982Z,5.17
2018-10-03T09:10:11.905Z,5.23
2018-10-03T09:12:41.043Z,6.07
2018-10-03T09:15:10.391Z,6.40
2018-10-03T09:17:39.195Z,5.30
2018-10-03T09:20:08.521Z,7.60
2018-10-03T09:22:37.328Z,7.70
2018-10-03T09:25:07.031Z,9.13
2018-10-03T09:27:35.972Z,5.67
2018-10-03T09:30:04.798Z,6.90
2018-10-03T09:32:33.633Z,7.37
2018-10-03T09:35:03.155Z,4.60
2018-10-03T09:37:31.973Z,7.50
2018-10-03T09:40:00.820Z,6.83
2018-10-03T09:42:29.628Z,5.30
2018-10-03T09:44:58.446Z,5.13
2018-10-03T09:47:27.284Z,7.97
2018-10-03T09:49:56.106Z,9.90
2018-10-03T09:52:24.939Z,5.93
2018-10-03T09:54:53.875Z,4.10
2018-10-03T09:57:23.067Z,4.83
2018-10-03T09:59:51.891Z,7.27
2018-10-03T10:02:20.727Z,7.60
2018-10-03T10:04:49.559Z,4.97
2018-10-03T10:07:18.378Z,3.70
2018-10-03T10:09:47.196Z,4.87
2018-10-03T10:12:16.038Z,6.27
2018-10-03T10:14:44.831Z,8.20
2018-10-03T10:17:13.981Z,4.73
2018-10-03T10:19:43.138Z,9.10
2018-10-03T10:22:11.984Z,3.17
2018-10-03T10:24:40.783Z,4.30
2018-10-03T10:27:09.640Z,4.60
2018-10-03T10:29:38.497Z,5.73
2018-10-03T10:32:07.581Z,9.23
2018-10-03T10:34:36.375Z,6.00
2018-10-03T10:37:05.268Z,7.23
2018-10-03T10:39:34.116Z,6.10
2018-10-03T10:42:03.189Z,5.37
2018-10-03T10:44:32.019Z,6.03
2018-10-03T10:47:00.833Z,4.27
2018-10-03T10:49:29.677Z,6.50
2018-10-03T10:51:58.516Z,5.30
2018-10-03T10:54:27.324Z,7.20
2018-10-03T10:56:56.162Z,2.70
2018-10-03T10:59:24.977Z,6.07
2018-10-03T11:01:53.815Z,4.67
2018-10-03T11:04:23.127Z,5.23
2018-10-03T11:06:51.995Z,2.17
2018-10-03T11:09:20.822Z,5.33
2018-10-03T11:11:49.655Z,4.17
2018-10-03T11:14:18.475Z,4.67
2018-10-03T11:16:47.324Z,4.77
2018-10-03T11:19:16.751Z,3.57
2018-10-03T11:21:45.570Z,3.77
2018-10-03T11:24:14.554Z,6.77
2018-10-03T11:26:43.495Z,5.30
2018-10-03T11:29:12.312Z,6.03
2018-10-03T11:31:41.155Z,5.03
2018-10-03T11:34:09.996Z,7.00
2018-10-03T11:36:38.885Z,7.13
2018-10-03T11:39:09.377Z,9.80
2018-10-03T11:41:38.267Z,3.73
2018-10-03T11:44:07.131Z,10.27
2018-10-03T11:46:35.990Z,4.10
2018-10-03T11:49:05.362Z,4.37
2018-10-03T11:51:34.226Z,4.90
2018-10-03T11:54:03.032Z,4.23
2018-10-03T11:56:31.890Z,5.27
2018-10-03T11:59:03.774Z,5.90
2018-10-03T12:01:32.619Z,7.83
2018-10-03T12:04:01.424Z,5.23
2018-10-03T12:06:30.264Z,6.10
2018-10-03T12:08:59.574Z,3.17
2018-10-03T12:11:28.384Z,5.40
2018-10-03T12:13:57.219Z,3.00
2018-10-03T12:16:26.070Z,5.27
2018-10-03T12:18:54.943Z,6.20
2018-10-03T12:21:24.193Z,5.73
2018-10-03T12:23:53.065Z,6.53
2018-10-03T12:26:21.924Z,5.87
2018-10-03T12:28:50.746Z,4.57
2018-10-03T12:31:20.007Z,6.33
2018-10-03T12:33:48.915Z,5.53
2018-10-03T12:36:17.736Z,5.70
2018-10-03T12:38:46.541Z,6.77
2018-10-03T12:41:15.359Z,1.90
2018-10-03T12:43:44.385Z,3.77
2018-10-03T12:46:14.057Z,4.80
2018-10-03T12:48:42.868Z,3.97
2018-10-03T12:51:11.678Z,4.47
2018-10-03T12:53:40.849Z,2.97
2018-10-03T12:56:09.933Z,4.43
2018-10-03T12:58:38.815Z,4.53
2018-10-03T13:01:07.701Z,4.37
2018-10-03T13:03:36.481Z,3.13
2018-10-03T13:06:05.308Z,5.07
2018-10-03T13:08:34.136Z,3.57
2018-10-03T13:11:03.020Z,8.03
2018-10-03T13:13:31.813Z,7.27
2018-10-03T13:16:01.164Z,2.47
2018-10-03T13:18:29.975Z,5.33
2018-10-03T13:20:58.769Z,3.23
2018-10-03T13:23:28.063Z,4.00
2018-10-03T13:25:56.939Z,1.57
2018-10-03T13:28:25.831Z,3.07
2018-10-03T13:30:54.939Z,2.43
2018-10-03T13:33:23.751Z,1.47
2018-10-03T13:35:52.637Z,2.33
2018-10-03T13:38:21.828Z,6.27
2018-10-03T13:40:50.699Z,3.37
2018-10-03T13:43:19.516Z,3.63
2018-10-03T13:45:48.365Z,2.73
2018-10-03T13:48:17.190Z,1.43
2018-10-03T13:50:46.048Z,3.80
2018-10-03T13:53:14.891Z,2.83
2018-10-03T13:55:43.755Z,5.03
2018-10-03T13:58:12.603Z,4.57
2018-10-03T14:00:41.824Z,1.80
2018-10-03T14:03:10.645Z,1.97
2018-10-03T14:05:39.606Z,3.43
2018-10-03T14:08:08.424Z,2.57
2018-10-03T14:10:37.259Z,3.30
2018-10-03T14:13:06.097Z,3.73
2018-10-03T14:15:34.962Z,5.13
2018-10-03T14:18:03.817Z,4.20
2018-10-03T14:20:32.684Z,5.07
2018-10-03T14:23:01.843Z,4.20
2018-10-03T14:25:31.042Z,5.43
2018-10-03T14:27:59.848Z,3.60
2018-10-03T14:30:28.677Z,2.90
2018-10-03T14:32:57.970Z,4.37
2018-10-03T14:35:26.714Z,2.47
2018-10-03T14:37:55.536Z,2.90
2018-10-03T14:40:24.426Z,2.40
2018-10-03T14:42:53.242Z,4.60
2018-10-03T14:45:22.470Z,7.87
2018-10-03T14:47:51.384Z,4.40
2018-10-03T14:50:20.165Z,3.67
2018-10-03T14:52:48.986Z,4.93
2018-10-03T14:55:17.851Z,4.78
2018-10-03T14:57:46.655Z,5.30
2018-10-03T15:00:15.709Z,2.33
2018-10-03T15:02:44.625Z,3.30
2018-10-03T15:05:13.427Z,6.53
2018-10-03T15:07:42.494Z,4.17
2018-10-03T15:10:11.509Z,5.63
2018-10-03T15:12:40.339Z,3.57
2018-10-03T15:15:09.498Z,4.05
2018-10-03T15:17:38.320Z,3.10
2018-10-03T15:20:08.402Z,2.80
2018-10-03T15:22:37.383Z,4.83
2018-10-03T15:25:06.216Z,5.47
2018-10-03T15:27:35.556Z,4.73
2018-10-03T15:30:04.785Z,3.37
2018-10-03T15:32:33.562Z,4.80
2018-10-03T15:35:02.394Z,4.90
2018-10-03T15:37:31.243Z,4.37
2018-10-03T15:40:00.078Z,4.60
2018-10-03T15:42:28.916Z,4.00
2018-10-03T15:44:57.780Z,4.60
2018-10-03T15:47:26.673Z,5.43
2018-10-03T15:49:55.495Z,4.17
2018-10-03T15:52:24.341Z,1.87
2018-10-03T15:54:53.213Z,5.60
2018-10-03T15:57:22.014Z,4.37
2018-10-03T15:59:50.818Z,6.37
2018-10-03T16:02:19.680Z,5.10
2018-10-03T16:04:48.531Z,3.10
2018-10-03T16:07:17.866Z,4.90
2018-10-03T16:09:46.740Z,2.93
2018-10-03T16:12:15.575Z,1.90
2018-10-03T16:14:44.452Z,2.07
2018-10-03T16:17:13.317Z,3.90
2018-10-03T16:19:42.124Z,8.40
2018-10-03T16:22:10.962Z,4.43
2018-10-03T16:24:39.811Z,7.63
2018-10-03T16:27:08.626Z,3.97
2018-10-03T16:29:38.549Z,2.03
2018-10-03T16:32:07.429Z,5.30
2018-10-03T16:34:36.252Z,4.57
2018-10-03T16:37:05.209Z,1.73
2018-10-03T16:39:34.007Z,5.77
2018-10-03T16:42:02.830Z,7.47
2018-10-03T16:44:31.667Z,2.67
2018-10-03T16:47:00.495Z,3.33
2018-10-03T16:49:29.295Z,2.93
2018-10-03T16:51:58.244Z,4.07
2018-10-03T16:54:27.071Z,8.33
2018-10-03T16:56:55.885Z,3.57
2018-10-03T16:59:24.800Z,6.47
2018-10-03T17:01:53.648Z,3.63
2018-10-03T17:04:22.556Z,5.77
2018-10-03T17:06:51.449Z,3.93
2018-10-03T17:09:20.335Z,3.83
2018-10-03T17:11:49.200Z,3.93
2018-10-03T17:14:32.496Z,3.00
2018-10-03T17:17:01.341Z,4.50
2018-10-03T17:19:30.155Z,4.57
2018-10-03T17:21:59.525Z,3.40
2018-10-03T17:24:29.642Z,5.63
2018-10-03T17:26:58.473Z,4.80
2018-10-03T17:29:27.334Z,5.20
2018-10-03T17:31:56.689Z,3.80
2018-10-03T17:34:25.507Z,5.70
2018-10-03T17:36:55.532Z,6.07
2018-10-03T17:39:25.220Z,5.00
2018-10-03T17:41:54.146Z,5.23
2018-10-03T17:44:23.406Z,3.77
2018-10-03T17:46:53.638Z,5.03
2018-10-03T17:49:22.553Z,4.87
2018-10-03T17:51:51.417Z,7.73
2018-10-03T17:54:20.259Z,4.73
2018-10-03T17:56:49.184Z,4.77
2018-10-03T17:59:18.587Z,4.17
2018-10-03T18:01:50.050Z,7.67
2018-10-03T18:04:18.868Z,4.50
2018-10-03T18:06:47.700Z,3.63
2018-10-03T18:09:16.565Z,5.47
2018-10-03T18:11:45.302Z,6.80
2018-10-03T18:14:14.109Z,2.93
2018-10-03T18:16:42.906Z,3.63
2018-10-03T18:19:11.683Z,3.97
2018-10-03T18:21:41.062Z,3.13
2018-10-03T18:24:09.933Z,3.57
2018-10-03T18:26:38.723Z,4.47
2018-10-03T18:29:07.542Z,5.57
2018-10-03T18:31:36.374Z,3.50
2018-10-03T18:34:05.686Z,3.50
2018-10-03T18:36:34.513Z,3.63
2018-10-03T18:39:03.607Z,2.50
2018-10-03T18:41:32.394Z,3.60
2018-10-03T18:44:01.421Z,4.53
2018-10-03T18:46:30.224Z,3.83
2018-10-03T18:48:58.997Z,4.07
2018-10-03T18:51:27.903Z,4.27
2018-10-03T18:53:56.734Z,4.93
2018-10-03T18:56:25.533Z,2.17
2018-10-03T18:58:54.344Z,2.30
2018-10-03T19:01:23.158Z,4.33
2018-10-03T19:03:51.965Z,4.97
2018-10-03T19:06:21.157Z,3.40
2018-10-03T19:09:29.846Z,3.00
2018-10-03T19:12:36.315Z,3.40
2018-10-03T19:15:42.780Z,2.27
2018-10-03T19:18:49.573Z,4.90
2018-10-03T19:21:56.122Z,5.22
2018-10-03T19:25:02.848Z,4.57
2018-10-03T19:28:09.853Z,6.03
2018-10-03T19:31:16.179Z,3.20
2018-10-03T19:34:22.520Z,3.97
2018-10-03T19:37:28.912Z,7.47
2018-10-03T19:40:35.271Z,5.20
2018-10-03T19:43:41.760Z,3.30
2018-10-03T19:46:48.348Z,5.93
2018-10-03T19:49:55.065Z,5.07
2018-10-03T19:53:01.913Z,5.30
2018-10-03T19:56:09.783Z,4.27
2018-10-03T19:59:16.455Z,4.33
2018-10-03T20:02:22.938Z,3.30
2018-10-03T20:05:29.035Z,5.00
2018-10-03T20:08:35.711Z,4.80
2018-10-03T20:11:42.499Z,5.20
2018-10-03T20:14:49.493Z,6.70
2018-10-03T20:17:55.811Z,8.93
2018-10-03T20:21:02.295Z,13.80
2018-10-03T20:24:09.291Z,15.70
2018-10-03T20:27:15.661Z,15.03
2018-10-03T20:30:21.917Z,9.30
2018-10-03T20:33:28.432Z,6.57
2018-10-03T20:36:34.864Z,9.57
2018-10-03T20:39:41.143Z,6.53
2018-10-03T20:42:48.114Z,6.03
2018-10-03T20:45:54.610Z,3.93
2018-10-03T20:49:00.957Z,2.43
2018-10-03T20:51:30.537Z,5.23
2018-10-03T20:53:59.389Z,2.80
2018-10-03T20:56:28.212Z,4.80
2018-10-03T20:58:57.017Z,3.73
2018-10-03T21:01:25.822Z,3.17
2018-10-03T21:03:54.714Z,3.87
2018-10-03T21:06:23.516Z,3.43
2018-10-03T21:08:52.463Z,3.33
2018-10-03T21:11:21.265Z,5.13
2018-10-03T21:13:50.362Z,7.20
2018-10-03T21:16:19.184Z,2.97
2018-10-03T21:18:48.073Z,4.50
2018-10-03T21:21:16.895Z,6.63
2018-10-03T21:23:45.664Z,5.30
2018-10-03T21:26:14.484Z,4.03
2018-10-03T21:28:43.296Z,11.20
2018-10-03T21:31:12.145Z,4.00
2018-10-03T21:33:41.059Z,5.20
2018-10-03T21:36:10.071Z,5.23
2018-10-03T21:38:38.927Z,7.37
2018-10-03T21:41:07.781Z,4.30
2018-10-03T21:43:36.631Z,2.47
2018-10-03T21:46:05.418Z,3.63
2018-10-03T21:48:34.218Z,4.03
2018-10-03T21:51:03.059Z,5.70
2018-10-03T21:53:32.205Z,4.30
2018-10-03T21:56:01.124Z,2.77
2018-10-03T21:58:30.291Z,3.00
2018-10-03T22:00:59.080Z,4.10
2018-10-03T22:03:27.868Z,6.37
2018-10-03T22:05:56.699Z,5.13
2018-10-03T22:08:25.548Z,4.77
2018-10-03T22:10:54.352Z,3.40
2018-10-03T22:13:23.178Z,4.93
2018-10-03T22:15:52.091Z,5.77
2018-10-03T22:18:20.886Z,4.23
2018-10-03T22:20:49.975Z,6.27
2018-10-03T22:23:18.775Z,3.37
2018-10-03T22:25:47.584Z,3.53
2018-10-03T22:28:16.467Z,2.03
2018-10-03T22:30:45.254Z,5.73
2018-10-03T22:33:14.059Z,3.17
2018-10-03T22:35:42.963Z,3.40
2018-10-03T22:38:11.848Z,5.67
2018-10-03T22:40:40.658Z,4.23
2018-10-03T22:43:09.849Z,4.70
2018-10-03T22:45:38.662Z,5.37
2018-10-03T22:48:14.062Z,4.17
2018-10-03T22:50:42.927Z,7.47
2018-10-03T22:53:11.727Z,3.37
2018-10-03T22:55:40.837Z,4.90
2018-10-03T22:58:09.660Z,5.60
2018-10-03T23:00:38.478Z,2.73
2018-10-03T23:03:08.428Z,5.13
2018-10-03T23:05:37.244Z,4.23
2018-10-03T23:08:06.130Z,3.17
2018-10-03T23:10:34.935Z,3.97
2018-10-03T23:13:03.743Z,4.50
2018-10-03T23:15:32.630Z,4.70
2018-10-03T23:18:01.443Z,6.30
2018-10-03T23:20:30.318Z,3.40
2018-10-03T23:22:59.147Z,2.80
2018-10-03T23:25:28.535Z,4.57
2018-10-03T23:27:57.321Z,3.37
2018-10-03T23:30:26.114Z,3.57
2018-10-03T23:32:55.047Z,5.07
2018-10-03T23:35:23.863Z,5.37
2018-10-03T23:37:52.667Z,2.83
2018-10-03T23:40:21.649Z,3.70
2018-10-03T23:42:50.516Z,4.90
2018-10-03T23:45:19.428Z,6.43
2018-10-03T23:47:48.494Z,3.17
2018-10-03T23:50:17.372Z,6.23
2018-10-03T23:52:46.185Z,5.50
2018-10-03T23:55:15.028Z,3.17
2018-10-03T23:57:44.343Z,4.53
